sensor_id;sensor_type;location;lat;lon;timestamp;temperature;humidity
53653;DHT22;39553;52.954;5.932;2023-07-22T07:49:02;16.10;99.90
53653;DHT22;39553;52.954;5.932;2023-07-22T07:51:30;16.20;99.90
53653;DHT22;39553;52.954;5.932;2023-07-22T07:56:31;16.30;99.90
53653;DHT22;39553;52.954;5.932;2023-07-22T07:58:57;16.20;99.90
53653;DHT22;39553;52.954;5.932;2023-07-22T08:01:23;16.20;99.90
53653;DHT22;39553;52.954;5.932;2023-07-22T08:03:49;16.10;99.90
53653;DHT22;39553;52.954;5.932;2023-07-22T08:06:15;16.00;99.90
53653;DHT22;39553;52.954;5.932;2023-07-22T08:08:42;16.00;99.90
53653;DHT22;39553;52.954;5.932;2023-07-22T08:11:10;15.90;99.90
53653;DHT22;39553;52.954;5.932;2023-07-22T08:13:37;15.80;99.10
53653;DHT22;39553;52.954;5.932;2023-07-22T08:16:04;15.80;99.20
53653;DHT22;39553;52.954;5.932;2023-07-22T08:18:31;15.70;99.00
53653;DHT22;39553;52.954;5.932;2023-07-22T08:20:57;15.50;99.90
53653;DHT22;39553;52.954;5.932;2023-07-22T08:23:23;15.30;99.90
53653;DHT22;39553;52.954;5.932;2023-07-22T08:25:50;15.20;99.90
53653;DHT22;39553;52.954;5.932;2023-07-22T08:28:17;15.00;99.90
53653;DHT22;39553;52.954;5.932;2023-07-22T08:30:43;15.00;99.90
53653;DHT22;39553;52.954;5.932;2023-07-22T08:33:11;14.90;99.90
53653;DHT22;39553;52.954;5.932;2023-07-22T08:35:42;14.90;99.90
53653;DHT22;39553;52.954;5.932;2023-07-22T08:38:08;14.90;99.90
53653;DHT22;39553;52.954;5.932;2023-07-22T08:40:41;14.90;99.90
53653;DHT22;39553;52.954;5.932;2023-07-22T08:43:09;15.00;99.90
53653;DHT22;39553;52.954;5.932;2023-07-22T08:45:37;15.00;99.90
53653;DHT22;39553;52.954;5.932;2023-07-22T08:48:06;15.10;99.90
53653;DHT22;39553;52.954;5.932;2023-07-22T08:51:03;15.10;99.90
53653;DHT22;39553;52.954;5.932;2023-07-22T08:53:30;15.20;99.90
53653;DHT22;39553;52.954;5.932;2023-07-22T08:55:58;15.30;99.90
53653;DHT22;39553;52.954;5.932;2023-07-22T08:58:25;15.20;99.90
53653;DHT22;39553;52.954;5.932;2023-07-22T09:00:51;15.30;99.90
53653;DHT22;39553;52.954;5.932;2023-07-22T09:03:18;15.10;99.90
53653;DHT22;39553;52.954;5.932;2023-07-22T09:05:45;15.20;99.90
53653;DHT22;39553;52.954;5.932;2023-07-22T09:08:12;15.20;99.90
53653;DHT22;39553;52.954;5.932;2023-07-22T09:10:39;15.20;99.90
53653;DHT22;39553;52.954;5.932;2023-07-22T09:13:06;15.20;99.90
53653;DHT22;39553;52.954;5.932;2023-07-22T09:15:35;15.30;99.90
53653;DHT22;39553;52.954;5.932;2023-07-22T09:18:06;15.30;99.90
53653;DHT22;39553;52.954;5.932;2023-07-22T09:20:32;15.30;99.90
53653;DHT22;39553;52.954;5.932;2023-07-22T09:23:00;15.30;99.90
53653;DHT22;39553;52.954;5.932;2023-07-22T09:25:28;15.20;99.90
53653;DHT22;39553;52.954;5.932;2023-07-22T09:27:55;15.10;99.90
53653;DHT22;39553;52.954;5.932;2023-07-22T09:30:46;15.10;99.90
53653;DHT22;39553;52.954;5.932;2023-07-22T09:33:26;15.20;99.90
53653;DHT22;39553;52.954;5.932;2023-07-22T09:35:55;15.20;99.90
53653;DHT22;39553;52.954;5.932;2023-07-22T09:38:24;15.30;99.90
53653;DHT22;39553;52.954;5.932;2023-07-22T09:40:51;15.40;99.90
53653;DHT22;39553;52.954;5.932;2023-07-22T09:43:18;15.30;99.90
53653;DHT22;39553;52.954;5.932;2023-07-22T09:45:47;15.30;99.90
53653;DHT22;39553;52.954;5.932;2023-07-22T09:48:13;15.20;99.90
53653;DHT22;39553;52.954;5.932;2023-07-22T09:50:40;15.20;99.90
53653;DHT22;39553;52.954;5.932;2023-07-22T09:53:07;15.20;99.90
53653;DHT22;39553;52.954;5.932;2023-07-22T09:55:34;15.20;99.90
53653;DHT22;39553;52.954;5.932;2023-07-22T09:58:02;15.10;99.90
53653;DHT22;39553;52.954;5.932;2023-07-22T10:00:30;15.10;99.90
53653;DHT22;39553;52.954;5.932;2023-07-22T10:02:57;15.10;99.90
53653;DHT22;39553;52.954;5.932;2023-07-22T10:05:24;15.10;99.90
53653;DHT22;39553;52.954;5.932;2023-07-22T10:07:55;15.10;99.90
53653;DHT22;39553;52.954;5.932;2023-07-22T10:10:33;15.10;99.90
53653;DHT22;39553;52.954;5.932;2023-07-22T10:13:00;15.00;99.90
53653;DHT22;39553;52.954;5.932;2023-07-22T10:15:28;15.00;99.90
53653;DHT22;39553;52.954;5.932;2023-07-22T10:17:55;14.90;99.90
53653;DHT22;39553;52.954;5.932;2023-07-22T10:20:23;15.00;99.90
53653;DHT22;39553;52.954;5.932;2023-07-22T10:22:49;15.00;99.90
53653;DHT22;39553;52.954;5.932;2023-07-22T10:25:17;15.00;99.90
53653;DHT22;39553;52.954;5.932;2023-07-22T10:27:44;14.90;99.90
53653;DHT22;39553;52.954;5.932;2023-07-22T10:33:51;14.80;99.90
53653;DHT22;39553;52.954;5.932;2023-07-22T10:36:18;14.80;99.90
53653;DHT22;39553;52.954;5.932;2023-07-22T10:38:44;14.90;99.90
53653;DHT22;39553;52.954;5.932;2023-07-22T10:41:20;14.90;99.90
53653;DHT22;39553;52.954;5.932;2023-07-22T10:43:58;14.90;99.90
53653;DHT22;39553;52.954;5.932;2023-07-22T10:46:35;14.90;99.90
53653;DHT22;39553;52.954;5.932;2023-07-22T10:49:14;15.00;99.90
53653;DHT22;39553;52.954;5.932;2023-07-22T10:51:51;15.20;99.90
53653;DHT22;39553;52.954;5.932;2023-07-22T10:54:33;15.30;99.90
53653;DHT22;39553;52.954;5.932;2023-07-22T10:57:03;15.40;99.90
53653;DHT22;39553;52.954;5.932;2023-07-22T10:59:33;15.50;99.90
53653;DHT22;39553;52.954;5.932;2023-07-22T11:01:59;15.60;99.90
53653;DHT22;39553;52.954;5.932;2023-07-22T11:04:26;15.50;99.90
53653;DHT22;39553;52.954;5.932;2023-07-22T11:07:04;15.60;99.90
53653;DHT22;39553;52.954;5.932;2023-07-22T11:12:16;15.60;99.90
53653;DHT22;39553;52.954;5.932;2023-07-22T11:14:51;15.60;99.90
53653;DHT22;39553;52.954;5.932;2023-07-22T11:17:18;15.60;99.90
53653;DHT22;39553;52.954;5.932;2023-07-22T11:19:44;15.60;99.90
53653;DHT22;39553;52.954;5.932;2023-07-22T11:22:10;15.60;99.90
53653;DHT22;39553;52.954;5.932;2023-07-22T11:24:36;15.60;99.90
53653;DHT22;39553;52.954;5.932;2023-07-22T11:27:05;15.50;99.90
53653;DHT22;39553;52.954;5.932;2023-07-22T11:29:31;15.50;99.90
53653;DHT22;39553;52.954;5.932;2023-07-22T11:31:57;15.40;99.90
53653;DHT22;39553;52.954;5.932;2023-07-22T11:34:23;15.40;99.90
53653;DHT22;39553;52.954;5.932;2023-07-22T11:36:51;15.30;99.90
53653;DHT22;39553;52.954;5.932;2023-07-22T11:39:39;15.20;99.90
53653;DHT22;39553;52.954;5.932;2023-07-22T11:42:08;15.10;99.90
53653;DHT22;39553;52.954;5.932;2023-07-22T11:44:34;15.00;99.90
53653;DHT22;39553;52.954;5.932;2023-07-22T11:47:04;14.00;99.90
53653;DHT22;39553;52.954;5.932;2023-07-22T11:49:32;16.30;99.90
53653;DHT22;39553;52.954;5.932;2023-07-22T11:52:00;14.00;99.90
53653;DHT22;39553;52.954;5.932;2023-07-22T11:54:27;14.80;99.90
53653;DHT22;39553;52.954;5.932;2023-07-22T11:56:54;14.10;99.90
53653;DHT22;39553;52.954;5.932;2023-07-22T11:59:34;14.20;99.90
53653;DHT22;39553;52.954;5.932;2023-07-22T12:02:00;16.50;99.90
53653;DHT22;39553;52.954;5.932;2023-07-22T12:04:27;15.80;99.90
53653;DHT22;39553;52.954;5.932;2023-07-22T12:06:53;14.40;99.90
53653;DHT22;39553;52.954;5.932;2023-07-22T12:09:19;16.80;99.90
53653;DHT22;39553;52.954;5.932;2023-07-22T12:11:44;15.10;99.90
53653;DHT22;39553;52.954;5.932;2023-07-22T12:14:14;14.60;99.90
53653;DHT22;39553;52.954;5.932;2023-07-22T12:16:41;15.80;99.90
53653;DHT22;39553;52.954;5.932;2023-07-22T12:19:08;16.00;99.90
53653;DHT22;39553;52.954;5.932;2023-07-22T12:21:35;14.40;99.90
53653;DHT22;39553;52.954;5.932;2023-07-22T12:24:01;14.70;99.90
53653;DHT22;39553;52.954;5.932;2023-07-22T12:26:27;15.90;99.90
53653;DHT22;39553;52.954;5.932;2023-07-22T12:28:53;17.00;99.90
53653;DHT22;39553;52.954;5.932;2023-07-22T12:31:19;15.10;99.90
53653;DHT22;39553;52.954;5.932;2023-07-22T12:33:45;14.50;99.90
53653;DHT22;39553;52.954;5.932;2023-07-22T12:36:11;17.20;99.90
53653;DHT22;39553;52.954;5.932;2023-07-22T12:38:38;14.80;99.90
53653;DHT22;39553;52.954;5.932;2023-07-22T12:41:03;15.70;99.90
53653;DHT22;39553;52.954;5.932;2023-07-22T12:43:30;14.40;99.90
53653;DHT22;39553;52.954;5.932;2023-07-22T12:45:56;14.50;99.90
53653;DHT22;39553;52.954;5.932;2023-07-22T12:48:22;17.10;99.90
53653;DHT22;39553;52.954;5.932;2023-07-22T12:50:50;14.70;99.90
53653;DHT22;39553;52.954;5.932;2023-07-22T12:53:16;17.20;99.90
53653;DHT22;39553;52.954;5.932;2023-07-22T12:55:42;17.30;99.90
53653;DHT22;39553;52.954;5.932;2023-07-22T12:58:08;15.20;99.90
53653;DHT22;39553;52.954;5.932;2023-07-22T13:00:33;17.00;99.90
53653;DHT22;39553;52.954;5.932;2023-07-22T13:02:59;15.30;99.90
53653;DHT22;39553;52.954;5.932;2023-07-22T13:05:25;14.50;99.90
53653;DHT22;39553;52.954;5.932;2023-07-22T13:07:51;16.20;99.90
53653;DHT22;39553;52.954;5.932;2023-07-22T13:10:18;16.20;99.90
53653;DHT22;39553;52.954;5.932;2023-07-22T13:12:46;16.60;99.90
53653;DHT22;39553;52.954;5.932;2023-07-22T13:15:11;16.60;99.90
53653;DHT22;39553;52.954;5.932;2023-07-22T13:17:37;15.00;99.90
53653;DHT22;39553;52.954;5.932;2023-07-22T13:20:05;17.00;99.90
53653;DHT22;39553;52.954;5.932;2023-07-22T13:22:35;16.90;99.90
53653;DHT22;39553;52.954;5.932;2023-07-22T13:25:02;16.20;99.90
53653;DHT22;39553;52.954;5.932;2023-07-22T13:27:28;16.80;99.90
53653;DHT22;39553;52.954;5.932;2023-07-22T13:29:54;16.40;99.90
53653;DHT22;39553;52.954;5.932;2023-07-22T13:32:20;16.70;99.90
53653;DHT22;39553;52.954;5.932;2023-07-22T13:34:46;16.70;99.90
53653;DHT22;39553;52.954;5.932;2023-07-22T13:37:12;16.80;99.90
53653;DHT22;39553;52.954;5.932;2023-07-22T13:39:38;16.70;99.90
53653;DHT22;39553;52.954;5.932;2023-07-22T13:42:04;16.80;99.90
53653;DHT22;39553;52.954;5.932;2023-07-22T13:44:29;16.70;99.90
53653;DHT22;39553;52.954;5.932;2023-07-22T13:46:56;16.80;99.90
53653;DHT22;39553;52.954;5.932;2023-07-22T13:49:24;16.70;99.90
53653;DHT22;39553;52.954;5.932;2023-07-22T13:51:50;16.70;99.90
53653;DHT22;39553;52.954;5.932;2023-07-22T13:54:16;16.90;99.90
53653;DHT22;39553;52.954;5.932;2023-07-22T13:56:42;17.00;99.90
53653;DHT22;39553;52.954;5.932;2023-07-22T13:59:09;16.90;99.90
53653;DHT22;39553;52.954;5.932;2023-07-22T14:01:35;16.70;99.90
53653;DHT22;39553;52.954;5.932;2023-07-22T14:04:01;16.80;99.90
53653;DHT22;39553;52.954;5.932;2023-07-22T14:06:26;16.90;99.90
53653;DHT22;39553;52.954;5.932;2023-07-22T14:08:52;17.00;54.90
53653;DHT22;39553;52.954;5.932;2023-07-22T14:11:18;17.10;52.30
53653;DHT22;39553;52.954;5.932;2023-07-22T14:13:44;17.10;31.10
53653;DHT22;39553;52.954;5.932;2023-07-22T14:16:11;17.10;31.80
53653;DHT22;39553;52.954;5.932;2023-07-22T14:18:37;17.00;24.30
53653;DHT22;39553;52.954;5.932;2023-07-22T14:21:02;16.90;21.80
53653;DHT22;39553;52.954;5.932;2023-07-22T14:23:28;16.70;25.40
53653;DHT22;39553;52.954;5.932;2023-07-22T14:25:54;16.70;38.10
53653;DHT22;39553;52.954;5.932;2023-07-22T14:28:20;16.50;40.00
53653;DHT22;39553;52.954;5.932;2023-07-22T14:30:46;16.40;39.60
53653;DHT22;39553;52.954;5.932;2023-07-22T14:33:12;16.30;44.00
53653;DHT22;39553;52.954;5.932;2023-07-22T14:35:37;16.20;45.60
53653;DHT22;39553;52.954;5.932;2023-07-22T14:38:03;16.20;56.90
53653;DHT22;39553;52.954;5.932;2023-07-22T14:40:29;16.20;61.90
53653;DHT22;39553;52.954;5.932;2023-07-22T14:42:55;16.10;63.90
53653;DHT22;39553;52.954;5.932;2023-07-22T14:45:21;16.10;67.80
53653;DHT22;39553;52.954;5.932;2023-07-22T14:47:46;16.20;68.00
53653;DHT22;39553;52.954;5.932;2023-07-22T14:50:13;16.20;59.30
53653;DHT22;39553;52.954;5.932;2023-07-22T14:52:40;16.20;54.00
53653;DHT22;39553;52.954;5.932;2023-07-22T14:55:06;16.20;49.60
53653;DHT22;39553;52.954;5.932;2023-07-22T14:57:32;16.30;50.50
53653;DHT22;39553;52.954;5.932;2023-07-22T14:59:58;16.40;50.40
53653;DHT22;39553;52.954;5.932;2023-07-22T15:02:24;16.40;45.10
53653;DHT22;39553;52.954;5.932;2023-07-22T15:04:49;16.50;43.40
53653;DHT22;39553;52.954;5.932;2023-07-22T15:07:15;16.40;40.10
53653;DHT22;39553;52.954;5.932;2023-07-22T15:09:41;16.50;40.30
53653;DHT22;39553;52.954;5.932;2023-07-22T15:12:07;16.50;39.30
53653;DHT22;39553;52.954;5.932;2023-07-22T15:14:35;16.50;41.30
53653;DHT22;39553;52.954;5.932;2023-07-22T15:17:01;16.50;28.20
53653;DHT22;39553;52.954;5.932;2023-07-22T15:19:27;16.50;26.20
53653;DHT22;39553;52.954;5.932;2023-07-22T15:21:53;16.50;27.70
53653;DHT22;39553;52.954;5.932;2023-07-22T15:24:22;16.60;31.10
53653;DHT22;39553;52.954;5.932;2023-07-22T15:26:48;16.60;27.70
53653;DHT22;39553;52.954;5.932;2023-07-22T15:29:13;16.80;29.10
53653;DHT22;39553;52.954;5.932;2023-07-22T15:31:39;16.80;28.60
53653;DHT22;39553;52.954;5.932;2023-07-22T15:34:05;16.70;28.30
53653;DHT22;39553;52.954;5.932;2023-07-22T15:36:31;16.70;34.80
53653;DHT22;39553;52.954;5.932;2023-07-22T15:38:56;16.60;31.00
53653;DHT22;39553;52.954;5.932;2023-07-22T15:41:22;16.60;27.80
53653;DHT22;39553;52.954;5.932;2023-07-22T15:43:54;16.70;29.70
53653;DHT22;39553;52.954;5.932;2023-07-22T15:46:20;16.70;30.20
53653;DHT22;39553;52.954;5.932;2023-07-22T15:48:47;16.80;29.80
53653;DHT22;39553;52.954;5.932;2023-07-22T15:51:13;16.90;21.00
53653;DHT22;39553;52.954;5.932;2023-07-22T15:53:39;17.00;19.70
53653;DHT22;39553;52.954;5.932;2023-07-22T15:56:04;17.10;15.50
53653;DHT22;39553;52.954;5.932;2023-07-22T15:58:30;17.10;16.80
53653;DHT22;39553;52.954;5.932;2023-07-22T16:00:56;17.10;19.00
53653;DHT22;39553;52.954;5.932;2023-07-22T16:03:22;17.10;18.40
53653;DHT22;39553;52.954;5.932;2023-07-22T16:05:47;17.10;19.40
53653;DHT22;39553;52.954;5.932;2023-07-22T16:08:13;17.00;20.60
53653;DHT22;39553;52.954;5.932;2023-07-22T16:10:40;16.90;23.10
53653;DHT22;39553;52.954;5.932;2023-07-22T16:13:06;16.80;25.10
53653;DHT22;39553;52.954;5.932;2023-07-22T16:15:32;16.70;26.40
53653;DHT22;39553;52.954;5.932;2023-07-22T16:17:58;16.60;26.00
53653;DHT22;39553;52.954;5.932;2023-07-22T16:20:23;16.60;28.00
53653;DHT22;39553;52.954;5.932;2023-07-22T16:22:49;16.50;30.40
53653;DHT22;39553;52.954;5.932;2023-07-22T16:25:15;16.50;31.70
53653;DHT22;39553;52.954;5.932;2023-07-22T16:27:41;16.50;34.30
53653;DHT22;39553;52.954;5.932;2023-07-22T16:30:07;16.60;32.60
53653;DHT22;39553;52.954;5.932;2023-07-22T16:32:36;16.70;31.70
53653;DHT22;39553;52.954;5.932;2023-07-22T16:35:02;16.70;29.00
53653;DHT22;39553;52.954;5.932;2023-07-22T16:37:28;16.80;29.30
53653;DHT22;39553;52.954;5.932;2023-07-22T16:39:53;16.80;29.80
53653;DHT22;39553;52.954;5.932;2023-07-22T16:42:21;16.80;27.30
53653;DHT22;39553;52.954;5.932;2023-07-22T16:44:47;16.60;28.60
53653;DHT22;39553;52.954;5.932;2023-07-22T16:47:13;16.50;31.10
53653;DHT22;39553;52.954;5.932;2023-07-22T16:49:38;16.30;35.40
53653;DHT22;39553;52.954;5.932;2023-07-22T16:52:04;16.20;36.20
53653;DHT22;39553;52.954;5.932;2023-07-22T16:54:30;16.00;43.50
53653;DHT22;39553;52.954;5.932;2023-07-22T16:56:58;15.90;46.50
53653;DHT22;39553;52.954;5.932;2023-07-22T16:59:25;15.80;52.00
53653;DHT22;39553;52.954;5.932;2023-07-22T17:01:51;15.60;57.90
53653;DHT22;39553;52.954;5.932;2023-07-22T17:04:18;15.60;61.00
53653;DHT22;39553;52.954;5.932;2023-07-22T17:06:44;15.60;63.50
53653;DHT22;39553;52.954;5.932;2023-07-22T17:09:10;15.50;72.90
53653;DHT22;39553;52.954;5.932;2023-07-22T17:11:37;15.40;83.00
53653;DHT22;39553;52.954;5.932;2023-07-22T17:14:03;15.40;92.60
53653;DHT22;39553;52.954;5.932;2023-07-22T17:16:29;15.30;96.40
53653;DHT22;39553;52.954;5.932;2023-07-22T17:18:57;15.30;99.40
53653;DHT22;39553;52.954;5.932;2023-07-22T17:21:23;15.30;97.40
53653;DHT22;39553;52.954;5.932;2023-07-22T17:23:49;15.30;99.90
53653;DHT22;39553;52.954;5.932;2023-07-22T17:26:15;15.20;99.90
53653;DHT22;39553;52.954;5.932;2023-07-22T17:28:40;15.20;99.90
53653;DHT22;39553;52.954;5.932;2023-07-22T17:31:07;15.20;99.90
53653;DHT22;39553;52.954;5.932;2023-07-22T17:33:32;15.20;99.90
53653;DHT22;39553;52.954;5.932;2023-07-22T17:35:58;15.10;99.80
53653;DHT22;39553;52.954;5.932;2023-07-22T17:38:24;15.10;99.90
53653;DHT22;39553;52.954;5.932;2023-07-22T17:40:50;15.10;99.90
53653;DHT22;39553;52.954;5.932;2023-07-22T17:43:17;15.10;99.90
53653;DHT22;39553;52.954;5.932;2023-07-22T17:45:43;15.10;99.90
53653;DHT22;39553;52.954;5.932;2023-07-22T17:48:09;15.20;99.90
53653;DHT22;39553;52.954;5.932;2023-07-22T17:50:36;15.20;99.90
53653;DHT22;39553;52.954;5.932;2023-07-22T17:53:01;15.20;99.90
53653;DHT22;39553;52.954;5.932;2023-07-22T17:55:28;15.20;99.90
53653;DHT22;39553;52.954;5.932;2023-07-22T17:57:54;15.30;99.90
53653;DHT22;39553;52.954;5.932;2023-07-22T18:00:20;15.30;99.90
53653;DHT22;39553;52.954;5.932;2023-07-22T18:02:46;15.30;99.90
53653;DHT22;39553;52.954;5.932;2023-07-22T18:05:11;15.30;99.90
53653;DHT22;39553;52.954;5.932;2023-07-22T18:07:37;15.30;99.90
53653;DHT22;39553;52.954;5.932;2023-07-22T18:10:04;15.20;99.90
53653;DHT22;39553;52.954;5.932;2023-07-22T18:12:30;15.20;99.90
53653;DHT22;39553;52.954;5.932;2023-07-22T18:14:56;15.20;99.90
53653;DHT22;39553;52.954;5.932;2023-07-22T18:17:23;15.20;99.90
53653;DHT22;39553;52.954;5.932;2023-07-22T18:19:49;15.20;99.90
53653;DHT22;39553;52.954;5.932;2023-07-22T18:22:15;15.20;99.90
53653;DHT22;39553;52.954;5.932;2023-07-22T18:24:41;15.20;99.90
53653;DHT22;39553;52.954;5.932;2023-07-22T18:27:07;15.20;99.90
53653;DHT22;39553;52.954;5.932;2023-07-22T18:29:33;15.20;99.90
53653;DHT22;39553;52.954;5.932;2023-07-22T18:31:59;15.10;99.90
53653;DHT22;39553;52.954;5.932;2023-07-22T18:34:25;15.10;99.90
53653;DHT22;39553;52.954;5.932;2023-07-22T18:36:51;15.10;99.90
53653;DHT22;39553;52.954;5.932;2023-07-22T18:39:18;15.10;99.90
53653;DHT22;39553;52.954;5.932;2023-07-22T18:41:43;15.10;99.90
53653;DHT22;39553;52.954;5.932;2023-07-22T18:44:09;15.10;99.90
53653;DHT22;39553;52.954;5.932;2023-07-22T18:46:36;15.00;99.90
53653;DHT22;39553;52.954;5.932;2023-07-22T18:49:04;15.00;99.90
53653;DHT22;39553;52.954;5.932;2023-07-22T18:51:30;15.00;99.90
53653;DHT22;39553;52.954;5.932;2023-07-22T18:54:00;15.00;99.90
53653;DHT22;39553;52.954;5.932;2023-07-22T18:56:26;14.90;99.90
53653;DHT22;39553;52.954;5.932;2023-07-22T18:58:55;14.80;99.90
53653;DHT22;39553;52.954;5.932;2023-07-22T19:01:21;14.80;99.90
53653;DHT22;39553;52.954;5.932;2023-07-22T19:03:48;14.70;99.90
53653;DHT22;39553;52.954;5.932;2023-07-22T19:06:14;14.70;99.90
53653;DHT22;39553;52.954;5.932;2023-07-22T19:08:40;14.70;99.90
53653;DHT22;39553;52.954;5.932;2023-07-22T19:11:05;14.60;99.90
53653;DHT22;39553;52.954;5.932;2023-07-22T19:13:34;14.60;99.90
53653;DHT22;39553;52.954;5.932;2023-07-22T19:16:00;14.60;99.90
53653;DHT22;39553;52.954;5.932;2023-07-22T19:18:26;14.60;99.90
53653;DHT22;39553;52.954;5.932;2023-07-22T19:21:00;14.60;99.90
53653;DHT22;39553;52.954;5.932;2023-07-22T19:23:26;14.60;99.90
53653;DHT22;39553;52.954;5.932;2023-07-22T19:25:56;14.50;99.90
53653;DHT22;39553;52.954;5.932;2023-07-22T19:28:22;14.50;99.90
53653;DHT22;39553;52.954;5.932;2023-07-22T19:30:55;14.50;99.90
53653;DHT22;39553;52.954;5.932;2023-07-22T19:33:25;14.50;99.90
53653;DHT22;39553;52.954;5.932;2023-07-22T19:36:07;14.50;99.90
53653;DHT22;39553;52.954;5.932;2023-07-22T19:38:35;14.40;99.90
53653;DHT22;39553;52.954;5.932;2023-07-22T19:41:09;14.40;99.90
53653;DHT22;39553;52.954;5.932;2023-07-22T19:43:36;14.40;99.90
53653;DHT22;39553;52.954;5.932;2023-07-22T19:46:04;14.30;99.90
53653;DHT22;39553;52.954;5.932;2023-07-22T19:48:31;14.30;99.90
53653;DHT22;39553;52.954;5.932;2023-07-22T19:51:01;14.30;99.90
53653;DHT22;39553;52.954;5.932;2023-07-22T19:53:27;14.30;99.90
53653;DHT22;39553;52.954;5.932;2023-07-22T19:55:54;14.30;99.90
53653;DHT22;39553;52.954;5.932;2023-07-22T19:58:21;14.20;99.90
53653;DHT22;39553;52.954;5.932;2023-07-22T20:00:48;14.30;99.90
53653;DHT22;39553;52.954;5.932;2023-07-22T20:03:14;14.30;99.90
53653;DHT22;39553;52.954;5.932;2023-07-22T20:05:40;14.30;99.90
53653;DHT22;39553;52.954;5.932;2023-07-22T20:08:09;14.40;99.90
53653;DHT22;39553;52.954;5.932;2023-07-22T20:10:35;14.30;99.90
53653;DHT22;39553;52.954;5.932;2023-07-22T20:13:02;14.40;99.90
53653;DHT22;39553;52.954;5.932;2023-07-22T20:15:28;14.40;99.90
53653;DHT22;39553;52.954;5.932;2023-07-22T20:17:55;14.40;99.90
53653;DHT22;39553;52.954;5.932;2023-07-22T20:20:21;14.50;99.90
53653;DHT22;39553;52.954;5.932;2023-07-22T20:22:47;14.50;99.90
53653;DHT22;39553;52.954;5.932;2023-07-22T20:25:13;14.50;99.90
53653;DHT22;39553;52.954;5.932;2023-07-22T20:27:39;14.40;99.90
53653;DHT22;39553;52.954;5.932;2023-07-22T20:30:05;14.40;99.90
53653;DHT22;39553;52.954;5.932;2023-07-22T20:32:30;14.40;99.90
53653;DHT22;39553;52.954;5.932;2023-07-22T20:34:57;14.30;99.90
53653;DHT22;39553;52.954;5.932;2023-07-22T20:37:23;14.50;99.90
53653;DHT22;39553;52.954;5.932;2023-07-22T20:39:49;14.30;99.90
53653;DHT22;39553;52.954;5.932;2023-07-22T20:42:14;14.50;99.90
53653;DHT22;39553;52.954;5.932;2023-07-22T20:44:40;14.30;99.90
53653;DHT22;39553;52.954;5.932;2023-07-22T20:47:06;14.30;99.90
53653;DHT22;39553;52.954;5.932;2023-07-22T20:49:32;14.30;99.90
53653;DHT22;39553;52.954;5.932;2023-07-22T20:51:59;14.20;99.90
53653;DHT22;39553;52.954;5.932;2023-07-22T20:54:25;14.30;99.90
53653;DHT22;39553;52.954;5.932;2023-07-22T20:56:53;14.10;99.90
53653;DHT22;39553;52.954;5.932;2023-07-22T20:59:19;14.20;99.90
53653;DHT22;39553;52.954;5.932;2023-07-22T21:01:45;14.20;99.90
53653;DHT22;39553;52.954;5.932;2023-07-22T21:04:11;14.20;99.90
53653;DHT22;39553;52.954;5.932;2023-07-22T21:06:36;14.20;99.90
53653;DHT22;39553;52.954;5.932;2023-07-22T21:09:05;14.20;99.90
53653;DHT22;39553;52.954;5.932;2023-07-22T21:11:31;14.10;99.90
53653;DHT22;39553;52.954;5.932;2023-07-22T21:13:57;14.20;99.90
53653;DHT22;39553;52.954;5.932;2023-07-22T21:16:23;14.20;99.90
53653;DHT22;39553;52.954;5.932;2023-07-22T21:18:48;14.10;99.90
53653;DHT22;39553;52.954;5.932;2023-07-22T21:21:14;14.20;99.90
53653;DHT22;39553;52.954;5.932;2023-07-22T21:23:43;14.20;99.90
53653;DHT22;39553;52.954;5.932;2023-07-22T21:26:09;14.30;99.90
53653;DHT22;39553;52.954;5.932;2023-07-22T21:28:36;14.30;99.90
53653;DHT22;39553;52.954;5.932;2023-07-22T21:31:02;14.30;99.90
53653;DHT22;39553;52.954;5.932;2023-07-22T21:33:28;14.30;99.90
53653;DHT22;39553;52.954;5.932;2023-07-22T21:35:54;14.30;99.90
53653;DHT22;39553;52.954;5.932;2023-07-22T21:38:20;14.30;99.90
53653;DHT22;39553;52.954;5.932;2023-07-22T21:40:54;14.30;99.90
53653;DHT22;39553;52.954;5.932;2023-07-22T21:43:20;14.30;99.90
53653;DHT22;39553;52.954;5.932;2023-07-22T21:45:46;14.30;99.90
53653;DHT22;39553;52.954;5.932;2023-07-22T21:48:13;14.20;99.90
53653;DHT22;39553;52.954;5.932;2023-07-22T21:50:39;14.10;99.90
53653;DHT22;39553;52.954;5.932;2023-07-22T21:53:06;14.10;99.90
53653;DHT22;39553;52.954;5.932;2023-07-22T21:55:33;14.10;99.90
53653;DHT22;39553;52.954;5.932;2023-07-22T21:58:00;14.10;99.90
53653;DHT22;39553;52.954;5.932;2023-07-22T22:00:27;14.00;99.90
53653;DHT22;39553;52.954;5.932;2023-07-22T22:02:53;14.20;99.90
53653;DHT22;39553;52.954;5.932;2023-07-22T22:05:19;14.10;99.90
53653;DHT22;39553;52.954;5.932;2023-07-22T22:07:45;14.10;99.90
53653;DHT22;39553;52.954;5.932;2023-07-22T22:10:11;14.30;99.90
53653;DHT22;39553;52.954;5.932;2023-07-22T22:12:37;14.10;99.90
53653;DHT22;39553;52.954;5.932;2023-07-22T22:15:04;14.10;99.90
53653;DHT22;39553;52.954;5.932;2023-07-22T22:17:30;14.10;99.90
53653;DHT22;39553;52.954;5.932;2023-07-22T22:19:56;14.00;99.90
53653;DHT22;39553;52.954;5.932;2023-07-22T22:22:21;14.10;99.90
53653;DHT22;39553;52.954;5.932;2023-07-22T22:24:47;14.10;99.90
53653;DHT22;39553;52.954;5.932;2023-07-22T22:27:14;14.00;99.90
53653;DHT22;39553;52.954;5.932;2023-07-22T22:29:40;14.10;99.90
53653;DHT22;39553;52.954;5.932;2023-07-22T22:32:06;14.00;99.90
53653;DHT22;39553;52.954;5.932;2023-07-22T22:34:32;14.00;99.90
53653;DHT22;39553;52.954;5.932;2023-07-22T22:36:58;14.00;99.90
53653;DHT22;39553;52.954;5.932;2023-07-22T22:39:27;14.00;99.90
53653;DHT22;39553;52.954;5.932;2023-07-22T22:41:52;14.00;99.90
53653;DHT22;39553;52.954;5.932;2023-07-22T22:44:18;14.00;99.90
53653;DHT22;39553;52.954;5.932;2023-07-22T22:46:44;14.00;99.90
53653;DHT22;39553;52.954;5.932;2023-07-22T22:49:12;14.10;99.90
53653;DHT22;39553;52.954;5.932;2023-07-22T22:51:38;14.10;99.90
53653;DHT22;39553;52.954;5.932;2023-07-22T22:54:04;14.10;99.90
53653;DHT22;39553;52.954;5.932;2023-07-22T22:56:30;14.10;99.90
53653;DHT22;39553;52.954;5.932;2023-07-22T22:58:55;14.10;99.90
53653;DHT22;39553;52.954;5.932;2023-07-22T23:01:21;14.10;99.90
53653;DHT22;39553;52.954;5.932;2023-07-22T23:03:47;14.00;99.90
53653;DHT22;39553;52.954;5.932;2023-07-22T23:06:14;13.90;99.90
53653;DHT22;39553;52.954;5.932;2023-07-22T23:08:40;14.20;99.90
53653;DHT22;39553;52.954;5.932;2023-07-22T23:11:09;13.90;99.90
53653;DHT22;39553;52.954;5.932;2023-07-22T23:13:36;14.10;99.90
53653;DHT22;39553;52.954;5.932;2023-07-22T23:16:02;14.00;99.90
53653;DHT22;39553;52.954;5.932;2023-07-22T23:18:28;14.00;99.90
53653;DHT22;39553;52.954;5.932;2023-07-22T23:20:53;13.90;99.90
53653;DHT22;39553;52.954;5.932;2023-07-22T23:23:19;13.90;99.90
53653;DHT22;39553;52.954;5.932;2023-07-22T23:25:45;13.90;99.90